Time;durP1;ratioP1;P1;durP2;ratioP2;P2;SDS_P1;SDS_P2;PMS_P1;PMS_P2;Temp;Humidity;BMP_temperature;BMP_pressure;BME280_temperature;BME280_humidity;BME280_pressure;Samples;Min_cycle;Max_cycle;Signal;HPM_P1;HPM_P2
2022/01/22 00:01:05;;;;;;;;;8.50;8.50;;;;;6.18;60.87;103083.66;4862529;29;45373;-53
2022/01/22 00:03:32;;;;;;;;;7.75;7.75;;;;;6.13;60.59;103075.00;4868927;29;45403;-51
2022/01/22 00:05:57;;;;;;;;;15.00;9.20;;;;;6.21;61.37;103078.84;4864704;29;45368;-52
2022/01/22 00:08:23;;;;;;;;;11.25;11.00;;;;;6.23;60.96;103086.88;4882029;29;45375;-52
2022/01/22 00:10:51;;;;;;;;;10.75;9.25;;;;;6.17;61.33;103074.63;4881427;29;45636;-53
2022/01/22 00:15:48;;;;;;;;;11.20;11.20;;;;;6.24;60.38;103075.88;4881387;29;45427;-52
2022/01/22 00:18:14;;;;;;;;;14.20;11.40;;;;;6.24;60.42;103081.31;4880814;29;45340;-51
2022/01/22 00:20:39;;;;;;;;;6.25;6.25;;;;;6.25;60.36;103082.19;4881198;29;45627;-51
2022/01/22 00:23:05;;;;;;;;;9.00;9.00;;;;;6.24;60.28;103074.97;4881069;29;45319;-51
2022/01/22 00:25:31;;;;;;;;;5.75;5.00;;;;;6.22;61.12;103066.94;4864023;29;45746;-55
2022/01/22 00:27:57;;;;;;;;;11.75;8.75;;;;;6.25;60.69;103068.56;4881187;29;45245;-54
2022/01/22 00:30:23;;;;;;;;;12.00;9.75;;;;;6.21;61.44;103067.94;4880842;29;45709;-51
2022/01/22 00:32:49;;;;;;;;;7.80;7.40;;;;;6.21;60.39;103070.69;4863500;29;45499;-54
2022/01/22 00:35:15;;;;;;;;;6.75;6.75;;;;;6.19;60.33;103060.88;4864008;29;45488;-54
2022/01/22 00:37:41;;;;;;;;;9.00;9.00;;;;;6.23;60.76;103065.06;4881035;29;45410;-52
2022/01/22 00:40:09;;;;;;;;;7.80;6.40;;;;;6.24;61.12;103064.94;4863752;29;46577;-51
2022/01/22 00:42:35;;;;;;;;;10.40;8.60;;;;;6.23;60.30;103057.78;4863996;29;45361;-51
2022/01/22 00:45:01;;;;;;;;;8.25;8.25;;;;;6.01;60.88;103025.91;4880978;29;45387;-51
2022/01/22 00:47:26;;;;;;;;;9.50;7.00;;;;;6.17;60.81;103054.66;4880358;29;45373;-54
2022/01/22 00:49:52;;;;;;;;;7.00;5.50;;;;;6.14;61.18;103049.47;4878421;29;47204;-51
2022/01/22 00:52:17;;;;;;;;;8.00;5.50;;;;;6.20;61.38;103066.19;4863110;29;45344;-49
2022/01/22 00:54:43;;;;;;;;;8.00;7.00;;;;;6.22;61.04;103060.63;4880440;29;45317;-52
2022/01/22 00:57:08;;;;;;;;;6.00;6.00;;;;;6.23;60.98;103055.03;4880650;29;45286;-51
2022/01/22 00:59:34;;;;;;;;;5.00;5.00;;;;;6.21;61.42;103056.16;4879023;29;47450;-51
2022/01/22 01:02:00;;;;;;;;;6.00;6.00;;;;;6.20;61.13;103055.28;4880176;29;45286;-51
2022/01/22 01:04:27;;;;;;;;;7.00;7.00;;;;;6.23;60.93;103063.22;4867472;29;45739;-53
2022/01/22 01:06:53;;;;;;;;;5.00;5.00;;;;;6.21;61.74;103057.03;4860238;29;45399;-54
2022/01/22 01:09:18;;;;;;;;;5.00;5.00;;;;;6.26;60.88;103067.56;4861599;29;45358;-51
2022/01/22 01:11:49;;;;;;;;;8.75;6.00;;;;;6.25;61.66;103054.94;4861619;29;45528;-50
2022/01/22 01:14:22;;;;;;;;;5.60;4.40;;;;;5.78;61.66;102978.72;4858598;28;45355;-52
2022/01/22 01:33:21;;;;;;;;;8.00;7.20;;;;;6.28;61.74;103042.88;4842632;29;45499;-50
2022/01/22 01:35:47;;;;;;;;;6.40;6.40;;;;;6.27;61.53;103052.94;4842652;29;45397;-50
2022/01/22 01:38:12;;;;;;;;;15.50;11.50;;;;;6.23;61.56;103051.44;4842559;29;45412;-52
2022/01/22 01:40:42;;;;;;;;;8.50;6.50;;;;;6.20;62.47;103051.69;4842183;29;46480;-51
2022/01/22 01:43:21;;;;;;;;;9.20;8.00;;;;;6.17;61.78;103035.56;4842272;29;45386;-50
2022/01/22 01:45:47;;;;;;;;;6.40;6.40;;;;;6.19;61.50;103044.53;4828473;29;45311;-49
2022/01/22 01:48:18;;;;;;;;;3.25;2.25;;;;;6.18;62.19;103049.09;4842997;29;45352;-53
2022/01/22 01:50:44;;;;;;;;;8.40;6.80;;;;;5.79;61.55;102975.00;4826278;29;46371;-50
2022/01/22 01:53:17;;;;;;;;;11.80;7.80;;;;;6.21;61.68;103050.72;4842599;29;45500;-51
2022/01/22 01:58:15;;;;;;;;;12.40;8.80;;;;;6.01;62.42;103005.94;4841755;29;45423;-51
2022/01/22 02:00:40;;;;;;;;;5.40;5.40;;;;;6.27;61.73;103042.03;4842488;29;45836;-50
2022/01/22 02:03:08;;;;;;;;;9.50;9.00;;;;;6.06;62.30;103010.06;4841979;29;45307;-51
2022/01/22 02:05:35;;;;;;;;;7.40;6.80;;;;;6.19;62.57;103030.88;4877091;29;45403;-51
2022/01/22 02:08:00;;;;;;;;;6.80;6.80;;;;;6.29;61.38;103050.09;4879897;29;45510;-53
2022/01/22 02:10:29;;;;;;;;;8.00;8.00;;;;;6.32;61.89;103052.53;4879722;29;45970;-49
2022/01/22 02:26:04;;;;;;;;;11.40;8.60;;;;;6.32;61.91;103037.06;4879455;29;45471;-52
2022/01/22 02:28:31;;;;;;;;;8.60;8.20;;;;;6.21;61.78;103010.69;4879103;29;45493;-50
2022/01/22 02:31:06;;;;;;;;;14.40;11.60;;;;;6.33;61.86;103038.78;4879077;29;46360;-50
2022/01/22 02:36:31;;;;;;;;;9.40;8.20;;;;;6.34;61.73;103040.50;4839841;29;45454;-49
2022/01/22 02:41:27;;;;;;;;;9.60;7.80;;;;;5.81;61.45;102945.75;4878806;29;45600;-50
2022/01/22 02:43:54;;;;;;;;;10.75;9.00;;;;;6.32;62.39;103039.78;4878502;29;45397;-52
2022/01/22 02:46:22;;;;;;;;;9.80;9.00;;;;;6.06;61.95;103001.91;4878981;29;45299;-49
2022/01/22 02:48:48;;;;;;;;;8.20;7.80;;;;;6.05;61.58;102994.72;4879145;29;45399;-53
2022/01/22 02:51:13;;;;;;;;;8.50;8.50;;;;;6.03;61.59;102998.56;4878674;29;45686;-49
2022/01/22 02:53:39;;;;;;;;;9.75;6.50;;;;;6.17;62.36;103019.22;4878736;29;45434;-47
2022/01/22 02:56:05;;;;;;;;;5.75;5.75;;;;;6.21;62.46;103023.44;4846407;29;45502;-50
2022/01/22 02:58:30;;;;;;;;;8.50;8.50;;;;;6.00;62.33;102980.56;4877596;29;45661;-48
2022/01/22 03:00:56;;;;;;;;;10.00;8.50;;;;;6.23;61.66;103024.16;4878895;29;46415;-47
2022/01/22 03:03:21;;;;;;;;;6.00;6.00;;;;;6.21;62.56;103020.72;4844525;29;45376;-50
2022/01/22 03:05:47;;;;;;;;;8.50;8.00;;;;;6.20;62.61;103019.81;4876779;29;45415;-50
2022/01/22 03:08:14;;;;;;;;;12.50;9.25;;;;;6.19;62.48;103015.38;4878821;29;45381;-50
2022/01/22 03:10:43;;;;;;;;;10.60;9.40;;;;;6.22;62.98;103026.03;4864005;29;45853;-50
2022/01/22 03:13:37;;;;;;;;;8.40;8.00;;;;;6.24;62.52;103018.59;4882185;29;45412;-54
2022/01/22 03:16:08;;;;;;;;;10.00;7.60;;;;;6.03;62.62;102983.03;4882188;29;45424;-49
2022/01/22 03:18:42;;;;;;;;;8.60;7.80;;;;;6.27;62.88;103011.13;4880917;29;45603;-50
2022/01/22 03:29:18;;;;;;;;;8.00;8.00;;;;;6.29;62.41;103018.19;4882016;29;45340;-49
2022/01/22 03:31:44;;;;;;;;;7.80;7.80;;;;;5.93;62.31;102955.66;4881574;29;46171;-53
2022/01/22 03:34:09;;;;;;;;;9.25;9.25;;;;;6.27;62.12;103022.03;4881823;29;45596;-52
2022/01/22 03:36:35;;;;;;;;;8.75;8.75;;;;;6.28;61.90;103018.31;4881717;29;45449;-53
2022/01/22 03:39:03;;;;;;;;;11.00;10.20;;;;;6.07;62.18;102976.34;4881831;29;45358;-48
2022/01/22 03:41:28;;;;;;;;;7.00;5.20;;;;;6.31;63.01;103010.78;4881543;29;45835;-49
2022/01/22 03:43:54;;;;;;;;;9.00;9.00;;;;;6.35;62.21;103033.22;4881456;29;45449;-49
2022/01/22 03:46:20;;;;;;;;;7.25;5.75;;;;;6.33;62.95;103030.59;4881859;29;45345;-52
2022/01/22 03:48:45;;;;;;;;;7.25;7.25;;;;;6.16;62.42;102998.41;4881818;29;45300;-48
2022/01/22 03:51:11;;;;;;;;;9.50;9.50;;;;;6.34;62.77;103034.19;4881411;29;45791;-48
2022/01/22 03:53:36;;;;;;;;;8.25;7.00;;;;;6.31;62.67;103026.25;4880235;29;45364;-52
2022/01/22 03:56:04;;;;;;;;;9.00;9.00;;;;;6.29;62.77;103029.09;4881948;29;45408;-50
2022/01/22 03:58:47;;;;;;;;;15.80;13.40;;;;;6.23;62.97;103032.34;4865045;29;45442;-51
2022/01/22 04:03:42;;;;;;;;;9.50;6.75;;;;;6.00;63.09;102996.91;4882007;29;45896;-52
2022/01/22 04:08:37;;;;;;;;;15.20;13.00;;;;;6.26;63.26;103039.41;4862872;29;45349;-50
2022/01/22 04:11:03;;;;;;;;;11.80;10.40;;;;;6.26;62.69;103032.09;4862687;29;46223;-50
2022/01/22 04:13:33;;;;;;;;;13.80;12.20;;;;;6.24;62.43;103025.91;4862231;29;45392;-50
2022/01/22 04:15:59;;;;;;;;;6.00;6.00;;;;;6.01;63.41;102993.19;4862507;29;45365;-50
2022/01/22 04:26:54;;;;;;;;;10.00;8.80;;;;;6.21;62.75;103007.94;4862568;29;45468;-51
2022/01/22 04:29:23;;;;;;;;;10.20;9.20;;;;;6.25;63.14;103024.94;4862864;29;45386;-50
2022/01/22 04:31:48;;;;;;;;;17.40;14.60;;;;;6.25;63.54;103016.75;4860630;29;48271;-50
2022/01/22 04:34:14;;;;;;;;;2.25;2.25;;;;;6.26;63.64;103018.47;4862351;29;45367;-49
2022/01/22 04:36:39;;;;;;;;;11.75;10.75;;;;;6.22;63.01;103016.97;4862190;29;45790;-49
2022/01/22 04:39:05;;;;;;;;;13.75;13.75;;;;;6.24;63.45;103021.31;4845680;29;45360;-50
2022/01/22 04:41:30;;;;;;;;;15.00;13.25;;;;;6.09;62.86;102990.72;4862315;29;46007;-50
2022/01/22 04:44:00;;;;;;;;;14.50;11.75;;;;;6.10;62.66;102994.34;4845302;29;45386;-48
2022/01/22 04:46:48;;;;;;;;;12.40;12.40;;;;;6.24;62.91;103007.69;4862206;29;45509;-52
2022/01/22 04:49:13;;;;;;;;;13.60;12.80;;;;;6.25;63.43;103016.75;4861813;29;45642;-52
2022/01/22 04:57:06;;;;;;;;;16.00;15.00;;;;;6.19;62.88;103023.56;4847766;29;45456;-54
2022/01/22 04:59:32;;;;;;;;;14.00;14.00;;;;;6.19;62.92;103029.00;4845129;29;45546;-49
2022/01/22 05:01:57;;;;;;;;;17.00;14.25;;;;;6.15;63.11;103026.66;4862260;29;46093;-52
2022/01/22 05:04:23;;;;;;;;;14.00;14.00;;;;;6.10;62.86;103018.88;4866880;29;45483;-53
2022/01/22 05:06:49;;;;;;;;;16.00;14.25;;;;;6.15;62.88;103027.53;4849789;29;45339;-48
2022/01/22 05:09:14;;;;;;;;;29.00;17.00;;;;;6.17;63.06;103021.94;4880342;29;45308;-53
2022/01/22 05:11:40;;;;;;;;;23.00;20.00;;;;;6.02;63.53;103005.84;4880598;29;46179;-54
2022/01/22 05:14:05;;;;;;;;;19.50;17.75;;;;;6.06;63.39;103018.25;4863409;29;45302;-50
2022/01/22 05:16:31;;;;;;;;;25.75;18.75;;;;;6.06;63.05;103022.81;4847806;29;45327;-53
2022/01/22 05:19:05;;;;;;;;;23.50;22.00;;;;;6.04;63.13;103025.66;4879174;29;45261;-49
2022/01/22 05:21:34;;;;;;;;;27.60;22.60;;;;;5.95;62.96;103001.88;4879770;29;46083;-48
2022/01/22 05:24:04;;;;;;;;;24.40;17.80;;;;;6.10;62.50;103017.00;4880183;29;45436;-52
2022/01/22 05:29:20;;;;;;;;;24.40;23.80;;;;;6.08;63.79;103032.63;4880313;29;45378;-49
2022/01/22 05:37:03;;;;;;;;;15.80;13.40;;;;;6.08;63.42;103038.06;4863342;29;45396;-52
2022/01/22 05:39:29;;;;;;;;;23.80;21.00;;;;;6.07;63.35;103040.91;4863004;29;45399;-50
2022/01/22 05:41:56;;;;;;;;;21.60;21.00;;;;;5.87;62.76;102997.03;4880156;29;45435;-52
2022/01/22 05:44:22;;;;;;;;;27.20;24.40;;;;;6.05;62.89;103032.88;4863146;29;45488;-53
2022/01/22 05:46:49;;;;;;;;;25.25;18.25;;;;;6.02;63.33;103033.13;4862849;29;45738;-52
2022/01/22 05:49:14;;;;;;;;;29.00;19.00;;;;;6.02;63.02;103037.69;4863049;29;45316;-50
2022/01/22 05:51:42;;;;;;;;;24.75;20.25;;;;;5.98;63.08;103031.63;4863030;29;47530;-52
2022/01/22 05:59:37;;;;;;;;;24.80;24.60;;;;;5.93;63.69;103031.13;4865737;29;45444;-51
2022/01/22 06:02:07;;;;;;;;;20.20;20.00;;;;;5.95;63.55;103048.22;4879826;29;46301;-50
2022/01/22 06:04:33;;;;;;;;;30.60;25.20;;;;;5.95;64.36;103046.38;4873909;29;45509;-50
2022/01/22 06:06:58;;;;;;;;;21.00;20.00;;;;;6.00;63.93;103045.09;4861315;29;45409;-52
2022/01/22 06:09:25;;;;;;;;;25.00;20.00;;;;;6.00;63.71;103051.44;4828939;29;45495;-49
2022/01/22 06:11:58;;;;;;;;;20.80;19.40;;;;;6.01;63.93;103042.25;4843734;29;46331;-51
2022/01/22 06:14:23;;;;;;;;;29.00;21.40;;;;;6.02;63.18;103049.47;4820691;29;45731;-48
2022/01/22 06:16:49;;;;;;;;;29.00;24.25;;;;;6.05;63.81;103057.44;4843870;29;45385;-49
2022/01/22 06:19:14;;;;;;;;;24.25;21.75;;;;;6.05;63.31;103060.16;4861098;29;45412;-54
2022/01/22 06:21:40;;;;;;;;;24.50;21.50;;;;;6.06;63.38;103045.53;4860593;29;45492;-49
2022/01/22 06:24:06;;;;;;;;;30.50;24.25;;;;;6.05;63.38;103051.09;4861017;29;45292;-49
2022/01/22 06:26:31;;;;;;;;;27.80;25.40;;;;;6.04;63.34;103055.66;4860478;29;45341;-52
2022/01/22 06:28:58;;;;;;;;;26.25;21.00;;;;;6.05;63.93;103051.09;4844288;29;45399;-51
2022/01/22 06:31:24;;;;;;;;;36.40;24.20;;;;;5.90;63.73;103023.19;4843935;29;45801;-49
2022/01/22 06:33:50;;;;;;;;;24.50;21.25;;;;;6.06;63.46;103050.97;4860732;29;45855;-49
2022/01/22 06:36:15;;;;;;;;;24.25;22.75;;;;;6.00;63.74;103037.81;4860591;29;45939;-52
2022/01/22 06:38:41;;;;;;;;;29.75;24.00;;;;;6.05;63.59;103043.78;4860763;29;45435;-50
2022/01/22 06:43:50;;;;;;;;;34.40;27.40;;;;;6.09;63.92;103044.41;4860924;29;45432;-51
2022/01/22 06:46:16;;;;;;;;;29.00;25.50;;;;;6.07;63.03;103046.38;4860607;29;45291;-52
2022/01/22 06:48:41;;;;;;;;;22.50;22.50;;;;;6.09;63.51;103056.16;4860845;29;45413;-49
2022/01/22 06:51:07;;;;;;;;;27.50;25.50;;;;;6.11;63.54;103058.78;4860043;29;45507;-51
2022/01/22 06:53:40;;;;;;;;;24.25;21.50;;;;;5.94;63.82;103030.13;4860559;29;45393;-52
2022/01/22 06:56:07;;;;;;;;;35.80;27.00;;;;;6.09;63.07;103058.03;4860088;29;45376;-51
2022/01/22 06:58:33;;;;;;;;;26.60;23.40;;;;;5.88;63.97;103025.16;4861005;29;45332;-52
2022/01/22 07:00:59;;;;;;;;;34.25;28.50;;;;;6.06;63.82;103055.56;4861091;29;45650;-49
2022/01/22 07:03:24;;;;;;;;;25.00;23.75;;;;;6.00;62.94;103051.44;4860621;29;45361;-51
2022/01/22 07:05:50;;;;;;;;;29.50;24.75;;;;;6.06;63.64;103061.88;4855575;29;45457;-51
2022/01/22 07:08:15;;;;;;;;;27.50;23.25;;;;;5.87;63.91;103028.91;4879486;29;45383;-49
2022/01/22 07:10:41;;;;;;;;;25.50;22.25;;;;;6.02;63.50;103057.66;4879092;29;46165;-48
2022/01/22 07:13:06;;;;;;;;;38.25;22.50;;;;;6.03;63.67;103062.13;4862107;29;45320;-52
2022/01/22 07:15:32;;;;;;;;;27.75;22.50;;;;;6.01;64.23;103057.75;4869488;28;45685;-48
2022/01/22 07:17:58;;;;;;;;;26.60;25.60;;;;;6.06;63.34;103066.44;4859523;29;45676;-50
2022/01/22 07:20:29;;;;;;;;;26.75;25.25;;;;;5.97;63.39;103048.94;4841446;29;47110;-49
2022/01/22 07:23:02;;;;;;;;;32.40;24.40;;;;;6.06;63.87;103053.69;4860325;29;45348;-51
2022/01/22 07:25:28;;;;;;;;;21.60;18.00;;;;;6.14;63.48;103068.56;4860689;29;45454;-50
2022/01/22 07:27:53;;;;;;;;;32.75;25.75;;;;;6.10;63.13;103063.34;4860546;29;45235;-49
2022/01/22 07:30:19;;;;;;;;;26.25;23.50;;;;;6.02;63.82;103051.31;4827763;29;47313;-52
2022/01/22 07:32:45;;;;;;;;;30.75;21.25;;;;;6.09;63.56;103061.63;4843142;29;45296;-49
2022/01/22 07:35:12;;;;;;;;;32.25;29.00;;;;;6.07;64.38;103060.88;4860109;29;45376;-48
2022/01/22 07:37:38;;;;;;;;;29.00;24.40;;;;;6.13;63.97;103072.28;4828302;29;45758;-50
2022/01/22 07:40:07;;;;;;;;;26.20;22.80;;;;;6.16;63.85;103075.63;4843616;29;45859;-49
2022/01/22 07:42:33;;;;;;;;;30.60;25.00;;;;;6.16;63.83;103072.03;4860403;29;45369;-48
2022/01/22 07:44:58;;;;;;;;;29.75;24.75;;;;;6.19;63.69;103071.78;4843925;29;45388;-48
2022/01/22 07:47:24;;;;;;;;;25.75;21.75;;;;;6.03;63.86;103047.63;4860415;29;45569;-53
2022/01/22 07:49:50;;;;;;;;;26.75;23.25;;;;;6.04;64.00;103044.75;4839398;29;47521;-50
2022/01/22 07:52:15;;;;;;;;;36.50;26.25;;;;;6.20;63.80;103074.38;4841049;29;45319;-50
2022/01/22 07:54:41;;;;;;;;;28.75;27.00;;;;;6.23;63.48;103081.44;4841854;29;45380;-52
2022/01/22 07:57:06;;;;;;;;;27.25;23.50;;;;;6.20;63.03;103077.09;4842067;29;45852;-52
2022/01/22 07:59:33;;;;;;;;;33.00;28.50;;;;;5.87;63.85;103027.03;4844063;29;46074;-51
2022/01/22 08:02:00;;;;;;;;;29.40;25.60;;;;;6.22;64.01;103085.16;4844146;29;45542;-49
2022/01/22 08:04:25;;;;;;;;;34.80;29.00;;;;;6.26;63.86;103088.50;4845209;29;45382;-50
2022/01/22 08:06:52;;;;;;;;;24.00;23.50;;;;;6.27;63.96;103088.38;4863182;29;45505;-51
2022/01/22 08:09:18;;;;;;;;;27.60;22.40;;;;;6.22;63.99;103086.03;4862418;29;46397;-49
2022/01/22 08:11:44;;;;;;;;;27.80;24.00;;;;;6.20;63.39;103085.28;4862379;29;45388;-49
2022/01/22 08:14:10;;;;;;;;;30.00;25.50;;;;;6.17;64.24;103084.66;4861308;29;45248;-51
2022/01/22 08:16:37;;;;;;;;;20.40;20.00;;;;;6.16;63.79;103080.22;4857339;29;45613;-48
2022/01/22 08:19:03;;;;;;;;;33.80;28.40;;;;;6.24;63.81;103092.22;4841880;29;45411;-52
2022/01/22 08:21:28;;;;;;;;;33.40;26.00;;;;;6.25;63.85;103087.66;4862015;29;45475;-53
2022/01/22 08:23:54;;;;;;;;;33.25;28.00;;;;;6.19;63.13;103089.00;4861499;29;45490;-50
2022/01/22 08:26:25;;;;;;;;;31.00;24.50;;;;;6.26;63.37;103096.69;4861428;29;45591;-52
2022/01/22 08:28:53;;;;;;;;;33.20;28.60;;;;;6.27;64.07;103101.13;4860837;29;45948;-49
2022/01/22 08:31:26;;;;;;;;;29.80;25.00;;;;;6.31;63.72;103105.38;4861176;29;45849;-48
2022/01/22 08:36:36;;;;;;;;;28.60;22.00;;;;;6.28;63.29;103094.69;4862667;29;45222;-49
2022/01/22 08:39:02;;;;;;;;;33.75;25.00;;;;;6.32;63.60;103099.78;4862102;29;45771;-50
2022/01/22 08:41:27;;;;;;;;;29.75;24.00;;;;;6.29;62.78;103104.63;4862139;29;45429;-51
2022/01/22 08:43:54;;;;;;;;;30.25;22.50;;;;;6.28;63.29;103103.75;4861148;29;45355;-50
2022/01/22 08:46:20;;;;;;;;;29.00;22.60;;;;;6.17;63.15;103085.53;4862177;29;45395;-52
2022/01/22 08:48:46;;;;;;;;;25.60;20.80;;;;;6.37;63.45;103110.31;4862279;29;45611;-53
2022/01/22 08:51:12;;;;;;;;;32.50;26.00;;;;;6.40;63.55;103117.38;4861066;29;45473;-53
2022/01/22 08:53:38;;;;;;;;;28.40;24.20;;;;;6.38;62.55;103117.50;4861132;29;45477;-55
2022/01/22 08:56:05;;;;;;;;;24.40;21.80;;;;;6.36;63.40;103123.06;4861375;29;45544;-50
2022/01/22 08:58:31;;;;;;;;;30.40;25.20;;;;;6.41;63.09;103119.13;4862205;29;45763;-53
2022/01/22 09:00:57;;;;;;;;;27.80;22.40;;;;;6.29;63.37;103105.47;4862457;29;45463;-52
2022/01/22 09:03:23;;;;;;;;;29.00;23.25;;;;;6.41;63.34;103136.34;4862018;29;45327;-53
2022/01/22 09:05:49;;;;;;;;;29.80;27.20;;;;;6.40;63.06;103129.16;4852846;29;45627;-53
2022/01/22 09:08:15;;;;;;;;;30.60;27.20;;;;;6.38;62.79;103133.88;4841869;29;46456;-51
2022/01/22 09:10:42;;;;;;;;;30.00;27.25;;;;;6.27;63.09;103117.50;4843563;29;45425;-50
2022/01/22 09:13:08;;;;;;;;;38.60;29.80;;;;;6.24;63.41;103110.44;4842234;29;45501;-52
2022/01/22 09:15:33;;;;;;;;;34.80;28.60;;;;;6.41;63.42;103141.78;4844022;29;45540;-54
2022/01/22 09:17:59;;;;;;;;;27.00;24.75;;;;;6.36;62.56;103144.91;4843775;29;45481;-51
2022/01/22 09:23:06;;;;;;;;;25.60;23.00;;;;;6.26;63.00;103121.22;4843177;29;45358;-55
2022/01/22 09:25:31;;;;;;;;;22.40;19.20;;;;;6.28;63.05;103120.13;4811924;29;46004;-53
2022/01/22 09:27:57;;;;;;;;;29.00;24.75;;;;;6.17;63.29;103106.47;4832987;29;45859;-53
2022/01/22 09:30:22;;;;;;;;;28.00;23.50;;;;;6.26;62.62;103124.84;4842431;29;45375;-49
2022/01/22 09:32:48;;;;;;;;;32.25;26.25;;;;;6.41;63.16;103147.25;4840935;29;45388;-50
2022/01/22 09:35:14;;;;;;;;;28.00;23.50;;;;;6.43;62.66;103149.84;4841496;29;45316;-52
2022/01/22 09:37:39;;;;;;;;;33.00;27.75;;;;;6.41;62.67;103157.31;4841909;29;45306;-50
2022/01/22 09:40:05;;;;;;;;;30.75;29.00;;;;;6.40;63.27;103152.84;4842034;29;45727;-51
2022/01/22 09:42:31;;;;;;;;;29.80;26.20;;;;;6.44;62.78;103168.84;4842021;29;45358;-53
2022/01/22 09:44:57;;;;;;;;;31.00;26.50;;;;;6.44;63.07;103160.66;4850278;29;45682;-48
2022/01/22 09:47:23;;;;;;;;;26.50;22.25;;;;;6.45;62.34;103156.09;4860522;29;46565;-49
2022/01/22 09:49:48;;;;;;;;;32.80;28.20;;;;;6.51;62.60;103153.69;4867339;29;45390;-49
2022/01/22 09:52:14;;;;;;;;;31.50;26.75;;;;;6.32;62.58;103128.91;4879346;29;45448;-48
2022/01/22 09:54:40;;;;;;;;;27.75;25.75;;;;;6.50;61.88;103162.88;4878069;29;45602;-53
2022/01/22 09:57:06;;;;;;;;;24.25;23.75;;;;;6.48;62.00;103162.16;4843230;29;45488;-48
2022/01/22 09:59:32;;;;;;;;;31.00;24.80;;;;;6.51;62.51;103163.75;4858174;29;45509;-50
2022/01/22 10:02:08;;;;;;;;;28.40;25.20;;;;;6.43;62.30;103147.13;4842406;29;45548;-50
2022/01/22 10:04:35;;;;;;;;;32.00;27.00;;;;;6.50;61.88;103156.56;4861579;29;45538;-49
2022/01/22 10:07:01;;;;;;;;;31.00;25.00;;;;;6.48;61.83;103155.81;4878836;29;45763;-53
2022/01/22 10:09:33;;;;;;;;;27.25;25.25;;;;;6.51;62.07;103167.34;4879828;29;45309;-49
2022/01/22 10:12:11;;;;;;;;;30.20;26.60;;;;;6.47;61.95;103167.72;4879804;29;45378;-50
2022/01/22 10:15:04;;;;;;;;;25.60;24.60;;;;;6.50;62.24;103167.47;4880182;29;45189;-49
2022/01/22 10:17:52;;;;;;;;;37.80;28.20;;;;;6.49;62.29;103172.06;4879365;29;46541;-51
2022/01/22 10:20:20;;;;;;;;;29.40;25.80;;;;;6.51;61.94;103171.91;4878929;29;45348;-50
2022/01/22 10:22:46;;;;;;;;;27.40;23.60;;;;;6.50;62.12;103168.34;4879481;29;45425;-52
2022/01/22 10:25:27;;;;;;;;;34.00;25.75;;;;;6.54;61.82;103176.25;4843483;28;45384;-52
2022/01/22 10:27:57;;;;;;;;;33.00;25.20;;;;;6.47;61.74;103165.84;4860301;29;45392;-53
2022/01/22 10:30:22;;;;;;;;;23.60;21.20;;;;;6.56;62.32;103172.41;4828038;29;45466;-50
2022/01/22 10:33:05;;;;;;;;;28.25;25.50;;;;;6.49;62.29;103150.25;4860698;29;45385;-53
2022/01/22 10:35:32;;;;;;;;;30.20;23.60;;;;;6.66;61.45;103178.00;4860872;29;45339;-52
2022/01/22 10:38:02;;;;;;;;;23.60;23.60;;;;;6.68;61.41;103180.59;4860179;29;46293;-50
2022/01/22 10:40:36;;;;;;;;;34.40;24.80;;;;;6.69;61.35;103183.22;4855857;29;45373;-53
2022/01/22 10:43:31;;;;;;;;;26.20;24.20;;;;;6.68;61.80;103176.03;4858149;29;46509;-53
2022/01/22 10:46:03;;;;;;;;;32.00;23.60;;;;;6.69;61.87;103182.34;4855889;29;45914;-55
2022/01/22 10:48:30;;;;;;;;;29.60;27.00;;;;;6.70;61.61;103175.88;4844943;29;56505;-51
2022/01/22 10:51:06;;;;;;;;;31.80;25.60;;;;;6.70;61.39;103168.56;4875259;29;45483;-53
2022/01/22 10:53:36;;;;;;;;;26.20;22.80;;;;;6.51;61.82;103131.00;4875153;29;45480;-53
2022/01/22 10:56:05;;;;;;;;;41.20;30.00;;;;;6.79;62.23;103166.94;4861406;29;45859;-51
2022/01/22 10:58:32;;;;;;;;;36.20;26.40;;;;;6.63;61.64;103138.16;4855051;29;46794;-53
2022/01/22 11:01:02;;;;;;;;;26.60;25.20;;;;;6.62;61.32;103133.72;4867869;29;45575;-54
2022/01/22 11:03:28;;;;;;;;;34.60;26.20;;;;;6.85;61.49;103169.16;4855177;29;45564;-58
2022/01/22 11:05:55;;;;;;;;;28.00;24.25;;;;;6.67;61.80;103135.22;4864209;29;45991;-53
2022/01/22 11:08:21;;;;;;;;;35.60;29.40;;;;;6.84;61.18;103156.50;4856881;29;45436;-49
2022/01/22 11:10:46;;;;;;;;;32.75;25.00;;;;;6.83;61.32;103160.22;4856231;29;45551;-51
2022/01/22 11:13:12;;;;;;;;;36.25;28.75;;;;;6.85;61.56;103163.72;4874580;29;45790;-49
2022/01/22 11:15:41;;;;;;;;;39.60;31.00;;;;;6.88;61.54;103160.72;4857575;29;45418;-49
2022/01/22 11:18:07;;;;;;;;;30.60;27.60;;;;;6.86;61.58;103157.25;4853384;29;47010;-50
2022/01/22 11:20:33;;;;;;;;;36.20;30.00;;;;;6.80;61.60;103155.03;4842858;29;45484;-49
2022/01/22 11:22:59;;;;;;;;;32.50;27.75;;;;;6.86;61.45;103156.38;4808636;29;45457;-51
2022/01/22 11:25:25;;;;;;;;;33.80;25.20;;;;;6.89;61.49;103156.13;4824229;29;45446;-51
2022/01/22 11:27:51;;;;;;;;;33.80;26.80;;;;;6.87;61.71;103158.09;4868151;29;45734;-50
2022/01/22 11:30:17;;;;;;;;;29.50;26.50;;;;;6.88;61.53;103160.72;4856698;29;45367;-50
2022/01/22 11:32:50;;;;;;;;;31.75;26.50;;;;;6.87;61.72;103148.06;4820439;29;45487;-51
2022/01/22 11:35:36;;;;;;;;;33.40;26.20;;;;;6.99;61.80;103145.31;4843848;29;45371;-50
2022/01/22 11:38:09;;;;;;;;;38.00;31.60;;;;;7.05;61.48;103134.72;4840027;29;46366;-52
2022/01/22 11:40:35;;;;;;;;;37.40;29.40;;;;;7.10;61.62;103144.41;4823799;29;45428;-54
2022/01/22 11:43:12;;;;;;;;;22.00;20.75;;;;;7.13;61.11;103146.84;4808232;29;45463;-52
2022/01/22 11:45:45;;;;;;;;;33.40;31.00;;;;;7.13;61.31;103133.19;4859362;29;45699;-54
2022/01/22 11:48:11;;;;;;;;;31.40;27.00;;;;;7.13;60.84;103136.81;4858566;29;45911;-55
2022/01/22 11:50:37;;;;;;;;;34.80;28.40;;;;;7.15;60.47;103136.69;4856082;29;45954;-52
2022/01/22 11:53:21;;;;;;;;;36.20;29.60;;;;;7.19;60.72;103136.28;4812927;29;46196;-56
2022/01/22 11:56:27;;;;;;;;;38.20;33.40;;;;;7.17;60.60;103130.06;4846492;29;45997;-54
2022/01/22 11:58:59;;;;;;;;;28.40;26.00;;;;;7.19;61.13;103130.81;4779216;29;45994;-50
2022/01/22 12:01:45;;;;;;;;;31.60;26.80;;;;;7.25;61.03;103139.50;4829238;29;45787;-52
2022/01/22 12:04:14;;;;;;;;;27.60;26.60;;;;;7.31;60.91;103138.97;4857228;29;45436;-54
2022/01/22 12:07:00;;;;;;;;;25.60;21.20;;;;;7.27;60.05;103113.75;4841424;29;45545;-53
2022/01/22 12:09:26;;;;;;;;;26.00;23.40;;;;;7.17;59.85;103101.91;4841128;29;46110;-56
2022/01/22 12:14:48;;;;;;;;;34.80;29.00;;;;;7.19;60.06;103087.13;4823025;29;45857;-50
2022/01/22 12:17:27;;;;;;;;;41.00;31.20;;;;;7.39;60.44;103110.97;4873122;29;45425;-50
2022/01/22 12:22:39;;;;;;;;;37.20;32.60;;;;;7.34;60.28;103119.56;4857435;29;45475;-51
2022/01/22 12:25:10;;;;;;;;;37.00;28.60;;;;;7.31;59.79;103122.59;4844912;29;45564;-52
2022/01/22 12:27:52;;;;;;;;;31.40;28.80;;;;;7.27;59.63;103100.09;4857333;29;45481;-51
2022/01/22 12:30:32;;;;;;;;;32.40;30.00;;;;;7.40;60.22;103116.31;4858257;29;46235;-51
2022/01/22 12:32:59;;;;;;;;;31.80;27.60;;;;;7.45;60.12;103105.88;4874420;29;45543;-49
2022/01/22 12:35:32;;;;;;;;;26.80;20.40;;;;;7.42;59.92;103106.13;4875203;29;45488;-48
2022/01/22 12:38:21;;;;;;;;;35.80;28.80;;;;;7.47;59.72;103113.91;4877211;29;45721;-48
2022/01/22 12:40:50;;;;;;;;;32.00;28.60;;;;;7.45;59.47;103092.19;4876867;29;46140;-50
2022/01/22 12:43:25;;;;;;;;;24.80;21.60;;;;;7.24;59.73;103062.13;4876135;29;45413;-52
2022/01/22 12:45:55;;;;;;;;;29.00;24.40;;;;;7.48;59.89;103095.66;4860976;29;45856;-48
2022/01/22 12:48:20;;;;;;;;;33.00;29.40;;;;;7.53;60.03;103087.94;4858341;29;45501;-50
2022/01/22 12:50:48;;;;;;;;;25.25;23.00;;;;;7.58;59.80;103085.66;4856465;29;45439;-49
2022/01/22 12:53:16;;;;;;;;;28.40;23.60;;;;;7.58;59.52;103080.19;4856698;29;45486;-50
2022/01/22 12:56:01;;;;;;;;;26.60;21.00;;;;;7.53;59.29;103060.59;4856720;29;45477;-50
2022/01/22 12:58:28;;;;;;;;;38.80;30.20;;;;;7.63;59.28;103072.44;4857038;29;45391;-50
2022/01/22 13:01:12;;;;;;;;;36.20;29.80;;;;;7.67;59.33;103073.91;4840685;28;45483;-50